Last 7 Days

Kelseyville Remote

Hourly Data | America/Los_Angeles
as of 5/9/26 8:39 PM PDT
Date & Time Temp (°F) RH (%) Dew Pt (°F) Wet Bulb (°F) BatVolt (V) Latest Rain (In) Max Rain Intensity (In/Hr) Precip 24Hr (In) Storm Total (In) Daily Rain (In) Daily Min Temp (°F) Daily Max Temp (°F)
5/9/26 - 2000 77.4 25 38.2 54.9 13.1 0.00 - - - 0.00 45.7 87.7
5/9/26 - 1900 82.2 22 39.2 56.4 13.5 0.00 - - - 0.00 45.7 87.7
5/9/26 - 1800 85.2 27 47.0 60.3 13.4 0.00 - - - 0.00 45.7 87.7
5/9/26 - 1700 86.2 27 48.0 60.9 13.4 0.00 - - - 0.00 45.7 87.7
5/9/26 - 1600 86.9 26 48.1 61.0 13.4 0.00 - - - 0.00 45.7 87.7
5/9/26 - 1500 86.2 27 48.0 60.8 13.4 0.00 - - - 0.00 45.7 87.5
5/9/26 - 1400 83.5 33 51.2 62.0 13.5 0.00 - - - 0.00 45.7 86.3
5/9/26 - 1300 80.2 36 50.9 61.2 13.5 0.00 - - - 0.00 45.7 81.1
5/9/26 - 1200 76.2 40 49.8 59.7 13.5 0.00 - - - 0.00 45.7 78.9
5/9/26 - 1100 72.3 43 48.8 58.2 13.6 0.00 - - - 0.00 45.7 73.7
5/9/26 - 1000 68.8 49 48.8 57.2 13.6 0.00 - - - 0.00 45.7 70.7
5/9/26 - 0900 64.7 51 46.0 54.4 13.7 0.00 - - - 0.00 45.7 67.4
5/9/26 - 0800 57.0 62 44.3 50.6 13.8 0.00 - - - 0.00 45.7 61.3
5/9/26 - 0700 47.6 80 41.7 45.1 13.0 0.00 - - - 0.00 45.7 52.0
5/9/26 - 0600 46.7 82 41.4 44.4 12.8 0.00 - - - 0.00 46.1 50.7
5/9/26 - 0500 47.5 82 42.4 45.4 12.8 0.00 - - - 0.00 46.9 50.7
5/9/26 - 0400 48.6 77 41.6 45.5 12.8 0.00 - - - 0.00 47.4 50.7
5/9/26 - 0300 49.0 78 42.5 46.2 12.9 0.00 - - - 0.00 48.2 50.7
5/9/26 - 0200 49.8 76 42.6 46.6 12.9 0.00 - - - 0.00 49.1 50.7
5/9/26 - 0100 52.1 70 42.4 47.6 12.9 0.00 - - - 0.00 42.1 83.6
5/9/26 - 0000 56.1 60 42.4 49.3 12.9 0.00 - - - 0.00 42.1 83.6
5/8/26 - 2300 58.5 55 42.3 50.3 13.0 0.00 - - - 0.00 42.1 83.6
5/8/26 - 2200 61.1 50 42.5 51.4 13.0 0.00 - - - 0.00 42.1 83.6
5/8/26 - 2100 65.8 46 44.2 53.8 13.0 0.00 - - - 0.00 42.1 83.6
5/8/26 - 2000 74.2 35 44.6 56.6 13.1 0.00 - - - 0.00 42.1 83.6
5/8/26 - 1900 78.6 28 43.0 57.1 13.5 0.00 - - - 0.00 42.1 83.6
5/8/26 - 1800 80.6 27 43.4 57.7 13.5 0.00 - - - 0.00 42.1 83.6
5/8/26 - 1700 81.8 26 43.3 57.9 13.5 0.00 - - - 0.00 42.1 83.6
5/8/26 - 1600 82.7 27 45.0 58.8 13.5 0.00 - - - 0.00 42.1 83.6
5/8/26 - 1500 81.0 31 47.2 59.5 13.5 0.00 - - - 0.00 42.1 81.9
5/8/26 - 1400 79.6 32 47.0 59.1 13.5 0.00 - - - 0.00 42.1 81.3
5/8/26 - 1300 75.7 39 49.2 59.2 13.6 0.00 - - - 0.00 42.1 77.9
5/8/26 - 1200 71.5 47 50.1 58.7 13.6 0.00 - - - 0.00 42.1 74.2
5/8/26 - 1100 68.0 53 50.0 57.7 13.6 0.00 - - - 0.00 42.1 69.4
5/8/26 - 1000 67.0 47 46.3 55.3 13.7 0.00 - - - 0.00 42.1 69.0
5/8/26 - 0900 61.8 53 44.3 52.5 13.8 0.00 - - - 0.00 42.1 65.2
5/8/26 - 0800 52.8 66 41.6 47.4 13.9 0.00 - - - 0.00 42.1 57.2
5/8/26 - 0700 43.9 82 38.6 41.7 13.0 0.00 - - - 0.00 42.1 50.2
5/8/26 - 0600 43.0 84 38.6 41.2 12.7 0.00 - - - 0.00 42.2 50.2
5/8/26 - 0500 43.6 86 39.5 42.0 12.8 0.00 - - - 0.00 42.6 50.2
5/8/26 - 0400 44.8 86 40.7 43.2 12.8 0.00 - - - 0.00 43.6 50.2
5/8/26 - 0300 45.9 85 41.7 44.2 12.8 0.00 - - - 0.00 44.3 50.2
5/8/26 - 0200 48.7 85 44.6 47.1 12.9 0.00 - - - 0.00 46.7 50.2
5/8/26 - 0100 52.3 82 47.0 50.1 12.9 0.00 - - - 0.00 46.2 84.4
5/8/26 - 0000 55.5 75 47.7 51.9 12.9 0.00 - - - 0.00 46.2 84.4
5/7/26 - 2300 56.9 75 48.9 53.2 13.0 0.00 - - - 0.00 46.2 84.4
5/7/26 - 2200 60.4 70 50.7 55.5 13.0 0.00 - - - 0.00 46.2 84.4
5/7/26 - 2100 66.8 59 52.1 58.5 13.0 0.00 - - - 0.00 46.2 84.4
5/7/26 - 2000 75.0 46 52.6 61.0 13.1 0.00 - - - 0.00 46.2 84.4
5/7/26 - 1900 78.2 43 53.7 62.3 13.5 0.00 - - - 0.00 46.2 84.4
5/7/26 - 1800 81.5 38 53.8 63.0 13.4 0.00 - - - 0.00 46.2 84.4
5/7/26 - 1700 83.4 29 47.7 60.2 13.4 0.00 - - - 0.00 46.2 84.4
5/7/26 - 1600 83.2 26 44.3 58.6 13.5 0.00 - - - 0.00 46.2 84.4
5/7/26 - 1500 81.2 32 48.8 60.3 13.5 0.00 - - - 0.00 46.2 81.9
5/7/26 - 1400 78.6 43 54.0 62.6 13.5 0.00 - - - 0.00 46.2 79.8
5/7/26 - 1300 76.4 51 57.2 64.1 13.6 0.00 - - - 0.00 46.2 77.8
5/7/26 - 1200 72.9 57 57.0 63.3 13.6 0.00 - - - 0.00 46.2 76.0
5/7/26 - 1100 69.0 64 56.3 61.8 13.6 0.00 - - - 0.00 46.2 70.2
5/7/26 - 1000 64.2 73 55.1 59.6 13.7 0.00 - - - 0.00 46.2 67.1
5/7/26 - 0900 59.6 81 53.7 57.1 13.8 0.00 - - - 0.00 46.2 61.4
5/7/26 - 0800 52.1 88 48.6 51.0 13.9 0.00 - - - 0.00 46.2 56.6
5/7/26 - 0700 46.7 90 43.8 45.8 13.0 0.00 - - - 0.00 46.2 52.8
5/7/26 - 0600 47.4 89 44.3 46.3 12.8 0.00 - - - 0.00 46.3 52.8
5/7/26 - 0500 48.0 88 44.7 46.8 12.8 0.00 - - - 0.00 47.4 52.8
5/7/26 - 0400 49.3 88 45.7 48.0 12.9 0.00 - - - 0.00 48.2 52.8
5/7/26 - 0300 50.1 87 46.4 48.8 12.9 0.00 - - - 0.00 49.6 52.8
5/7/26 - 0200 51.2 85 46.8 49.5 12.9 0.00 - - - 0.00 49.8 52.8
5/7/26 - 0100 53.5 84 48.8 51.7 12.9 0.00 - - - 0.00 52.8 79.8
5/7/26 - 0000 55.9 78 49.1 52.9 13.0 0.00 - - - 0.00 54.4 79.8
5/6/26 - 2300 57.8 77 50.5 54.4 13.0 0.00 - - - 0.00 55.7 79.8
5/6/26 - 2200 60.3 71 51.0 55.6 13.0 0.00 - - - 0.00 55.7 79.8
5/6/26 - 2100 65.7 62 52.4 58.3 13.0 0.00 - - - 0.00 55.7 79.8
5/6/26 - 2000 72.6 51 53.2 60.8 13.1 0.00 - - - 0.00 55.7 79.8
5/6/26 - 1900 77.3 45 54.2 62.4 13.5 0.00 - - - 0.00 55.7 79.8
5/6/26 - 1800 79.1 43 54.4 62.9 13.5 0.00 - - - 0.00 55.7 79.8
5/6/26 - 1700 77.8 44 54.0 62.4 13.5 0.00 - - - 0.00 55.7 79.3
5/6/26 - 1600 75.8 47 54.1 62.0 13.5 0.00 - - - 0.00 55.7 76.4
5/6/26 - 1500 72.7 50 52.8 60.5 13.6 0.00 - - - 0.00 55.7 75.6
5/6/26 - 1400 69.6 53 51.6 59.0 13.6 0.00 - - - 0.00 55.7 71.4
5/6/26 - 1300 67.8 56 51.6 58.5 13.6 0.00 - - - 0.00 55.7 69.8
5/6/26 - 1200 66.0 59 51.2 57.7 13.6 0.00 - - - 0.00 55.7 67.7
5/6/26 - 1100 63.4 65 51.3 57.0 13.7 0.00 - - - 0.00 55.7 64.9
5/6/26 - 1000 60.4 71 51.0 55.7 13.7 0.00 - - - 0.00 55.7 61.8
5/6/26 - 0900 58.3 76 50.6 54.7 13.8 0.00 - - - 0.00 55.7 59.4
5/6/26 - 0800 57.3 77 50.0 54.0 13.7 0.00 - - - 0.00 55.7 57.6
5/6/26 - 0700 56.3 78 49.7 53.4 12.9 0.00 - - - 0.00 55.7 56.8
5/6/26 - 0600 56.0 79 49.6 53.2 12.8 0.00 - - - 0.00 55.7 56.1
5/6/26 - 0500 55.9 79 49.4 53.1 12.9 0.00 - - - 0.00 55.7 56.1
5/6/26 - 0400 55.9 78 49.1 52.8 12.9 0.00 - - - 0.00 55.7 56.0
5/6/26 - 0300 55.8 77 48.8 52.7 12.9 0.00 - - - 0.00 55.7 56.0
5/6/26 - 0200 55.9 77 48.9 52.7 13.0 0.00 - - - 0.00 55.8 56.0
5/6/26 - 0100 55.9 77 48.7 52.6 12.9 0.00 - - - 0.00 48.7 72.6
5/6/26 - 0000 55.4 78 48.6 52.3 13.0 0.00 - - - 0.00 48.7 72.6
5/5/26 - 2300 55.8 76 48.2 52.3 13.0 0.00 - - - 0.00 48.7 72.6
5/5/26 - 2200 57.6 71 48.3 53.1 13.0 0.00 - - - 0.00 48.7 72.6
5/5/26 - 2100 59.6 66 48.4 53.9 13.0 0.00 - 0.06 0.12 0.00 48.7 72.6
5/5/26 - 2000 62.6 62 49.4 55.6 13.1 0.00 - 0.06 0.12 0.00 48.7 72.6
5/5/26 - 1900 65.6 58 50.3 57.0 13.6 0.00 - 0.06 0.12 0.00 48.7 72.6
5/5/26 - 1800 68.8 52 50.6 58.2 13.6 0.00 - 0.06 0.12 0.00 48.7 72.6
5/5/26 - 1700 71.0 48 50.6 58.8 13.6 0.00 - 0.06 0.12 0.00 48.7 72.6
5/5/26 - 1600 70.3 49 50.1 58.3 13.6 0.00 - 0.06 0.12 0.00 48.7 72.1
5/5/26 - 1500 69.0 50 49.4 57.6 13.6 0.00 - 0.06 0.12 0.00 48.7 70.8
5/5/26 - 1400 66.7 51 48.1 56.2 13.6 0.00 - 0.06 0.12 0.00 48.7 68.2
5/5/26 - 1300 64.6 54 47.7 55.3 13.6 0.00 - 0.11 0.12 0.00 48.7 66.2
5/5/26 - 1200 62.1 59 47.5 54.3 13.7 0.00 - 0.12 0.12 0.00 48.7 63.5
5/5/26 - 1100 59.3 65 47.7 53.4 13.7 0.00 - 0.12 0.12 0.00 48.7 61.2
5/5/26 - 1000 56.9 69 46.8 51.9 13.8 0.00 - 0.12 0.12 0.00 48.7 58.6
5/5/26 - 0900 53.2 76 45.7 49.8 13.8 0.00 - 0.12 0.12 0.00 48.7 55.5
5/5/26 - 0800 50.8 83 45.7 48.7 13.8 0.00 - 0.12 0.12 0.00 48.7 51.8
5/5/26 - 0700 49.5 86 45.4 47.9 12.9 0.00 - 0.12 0.12 0.00 48.7 51.6
5/5/26 - 0600 49.0 87 45.3 47.6 12.8 0.00 - 0.12 0.12 0.00 48.7 51.6
5/5/26 - 0500 49.2 86 45.2 47.7 12.8 0.00 - 0.12 0.12 0.00 48.7 51.6
5/5/26 - 0400 50.1 85 45.7 48.4 12.9 0.00 - 0.12 0.12 0.00 49.8 51.6
5/5/26 - 0300 51.3 80 45.3 48.7 12.9 0.00 - 0.12 0.12 0.00 50.8 51.6
5/5/26 - 0200 51.4 82 46.0 49.1 12.9 0.00 - 0.12 0.12 0.00 51.1 51.6
5/5/26 - 0100 51.7 78 45.2 48.8 13.0 0.00 - 0.12 0.12 0.12 51.5 59.3
5/5/26 - 0000 51.8 78 45.2 48.9 13.0 0.00 - 0.12 0.12 0.12 51.5 59.3
5/4/26 - 2300 52.1 78 45.5 49.2 13.0 0.00 - 0.12 0.12 0.12 51.7 59.3
5/4/26 - 2200 52.7 80 46.7 50.1 13.0 0.06 0.44 0.12 0.12 0.12 51.7 59.3
5/4/26 - 2100 54.1 78 47.5 51.2 13.0 0.00 - 0.06 - 0.06 51.7 59.3
5/4/26 - 2000 55.0 77 48.0 51.8 13.0 0.00 - 0.06 - 0.06 51.7 59.3
5/4/26 - 1900 55.7 76 48.4 52.4 13.1 0.00 - 0.06 - 0.06 51.7 59.3
5/4/26 - 1800 56.4 76 49.0 53.0 13.3 0.00 - 0.06 - 0.06 51.7 59.3
5/4/26 - 1700 57.6 72 48.6 53.2 13.8 0.00 - 0.06 - 0.06 51.7 59.3
5/4/26 - 1600 58.5 71 49.0 53.8 13.8 0.00 - 0.06 - 0.06 51.7 59.3
5/4/26 - 1500 56.4 79 49.8 53.5 13.8 0.00 - 0.06 - 0.06 51.7 58.1
5/4/26 - 1400 55.7 79 49.2 52.9 13.8 0.05 0.08 0.06 - 0.06 51.7 58.1
5/4/26 - 1300 56.8 71 47.4 52.2 13.8 0.01 0.01 0.01 - 0.01 51.7 58.1
5/4/26 - 1200 57.4 66 46.3 51.8 13.8 0.00 - - - 0.00 51.7 57.9
5/4/26 - 1100 57.0 65 45.5 51.3 13.8 0.00 - - - 0.00 51.7 57.5
5/4/26 - 1000 56.3 66 45.1 50.8 13.8 0.00 - - - 0.00 51.7 57.1
5/4/26 - 0900 54.4 70 44.9 49.9 13.8 0.00 - - - 0.00 51.7 55.5
5/4/26 - 0800 52.3 78 45.6 49.3 13.7 0.00 - - - 0.00 51.7 53.7
5/4/26 - 0700 52.2 77 45.2 49.1 13.0 0.00 - - - 0.00 51.7 53.7
5/4/26 - 0600 53.2 75 45.6 49.7 12.8 0.00 - - - 0.00 53.1 53.7
5/4/26 - 0500 53.4 75 45.6 49.8 12.8 0.00 - - - 0.00 53.1 53.7
5/4/26 - 0400 53.5 73 45.2 49.6 12.9 0.00 - - - 0.00 53.1 53.7
5/4/26 - 0300 53.6 73 45.2 49.7 12.9 0.00 - - - 0.00 53.1 53.7
5/4/26 - 0200 53.3 76 45.8 49.9 12.9 0.00 - - - 0.00 53.1 53.6
5/4/26 - 0100 53.6 75 45.9 50.0 13.0 0.00 - - - 0.00 47.5 67.8
5/4/26 - 0000 54.9 70 45.1 50.2 13.0 0.00 - - - 0.00 47.5 67.8
5/3/26 - 2300 55.2 65 43.7 49.6 13.0 0.00 - - - 0.00 47.5 67.8
5/3/26 - 2200 55.3 64 43.5 49.5 13.0 0.00 - - - 0.00 47.5 67.8
5/3/26 - 2100 55.7 65 44.2 50.1 13.0 0.00 - - - 0.00 47.5 67.8
5/3/26 - 2000 57.4 63 45.1 51.2 13.1 0.00 - - - 0.00 47.5 67.8
5/3/26 - 1900 59.7 58 44.8 51.9 13.8 0.00 - - - 0.00 47.5 67.8
5/3/26 - 1800 63.2 52 45.4 53.6 13.7 0.00 - - - 0.00 47.5 67.8
5/3/26 - 1700 66.1 49 46.5 55.1 13.6 0.00 - - - 0.00 47.5 67.8
5/3/26 - 1600 66.7 52 48.3 56.3 13.6 0.00 - - - 0.00 47.5 67.8
5/3/26 - 1500 64.4 55 48.0 55.4 13.6 0.00 - - - 0.00 47.5 66.9
5/3/26 - 1400 64.3 56 48.2 55.4 13.6 0.00 - - - 0.00 47.5 66.3
5/3/26 - 1300 62.8 57 47.6 54.6 13.7 0.00 - - - 0.00 47.5 64.4
5/3/26 - 1200 61.3 60 47.5 54.0 13.7 0.00 - - - 0.00 47.5 62.9
5/3/26 - 1100 59.4 63 46.8 52.9 13.8 0.00 - - - 0.00 47.5 61.5
5/3/26 - 1000 56.5 70 46.9 51.9 13.8 0.00 - - - 0.00 47.5 57.6
5/3/26 - 0900 54.4 74 46.4 50.6 13.9 0.00 - - - 0.00 47.5 55.5
5/3/26 - 0800 52.3 80 46.2 49.6 13.7 0.00 - - - 0.00 47.5 53.2
5/3/26 - 0700 49.7 83 44.7 47.6 12.9 0.00 - - - 0.00 47.5 51.5
5/3/26 - 0600 47.8 84 43.2 46.0 12.8 0.00 - - - 0.00 47.5 51.2
5/3/26 - 0500 48.2 82 42.8 45.9 12.8 0.00 - - - 0.00 47.6 51.2
5/3/26 - 0400 48.9 82 43.7 46.7 12.8 0.00 - - - 0.00 48.5 51.2
5/3/26 - 0300 49.5 83 44.6 47.5 12.9 0.00 - - - 0.00 48.8 51.2
5/3/26 - 0200 50.3 83 45.3 48.2 12.9 0.00 - - - 0.00 49.7 51.2
5/3/26 - 0100 51.8 80 45.9 49.3 12.9 0.00 - - - 0.00 49.7 79.8
5/3/26 - 0000 53.0 80 46.9 50.3 13.0 0.00 - - - 0.00 49.7 79.8
5/2/26 - 2300 54.6 76 47.3 51.3 13.0 0.00 - - - 0.00 49.7 79.8
5/2/26 - 2200 56.6 73 48.0 52.5 13.0 0.00 - - - 0.00 49.7 79.8
5/2/26 - 2100 59.3 65 47.5 53.2 13.0 0.00 - - - 0.00 49.7 79.8
Max 86.9 90 57.2 64.1 13.9 0.06 0.44 0.12 0.12 0.12 55.8 87.7
Avg 60.9 64 47.2 53.3 13.3 0.00 0.18 0.09 0.12 - - -
Min 43.0 22 38.2 41.2 12.7 0.00 0.01 0.01 0.12 0.00 42.1 50.2
Total - - - - - 0.12 - - - - - -